Time;durP1;ratioP1;P1;durP2;ratioP2;P2;SDS_P1;SDS_P2;PMS_P1;PMS_P2;Temp;Humidity;BMP_temperature;BMP_pressure;BME280_temperature;BME280_humidity;BME280_pressure;Samples;Min_cycle;Max_cycle;Signal;HPM_P1;HPM_P2
2022/11/24 00:01:16;;;;;;;49.17;29.60;;;6.80;99.90;;;;;;5070170;28;20200;-52
2022/11/24 00:03:47;;;;;;;1211.40;247.13;;;6.80;99.90;;;;;;5069391;28;20212;-52
2022/11/24 00:06:16;;;;;;;342.47;69.77;;;6.80;99.90;;;;;;5070071;28;20598;-52
2022/11/24 00:08:45;;;;;;;125.93;55.93;;;6.80;99.90;;;;;;5070183;28;20869;-52
2022/11/24 00:11:15;;;;;;;92.20;45.37;;;6.80;99.90;;;;;;5062702;28;20317;-52
2022/11/24 00:13:43;;;;;;;321.63;65.13;;;6.80;99.90;;;;;;5068546;28;20238;-52
2022/11/24 00:16:14;;;;;;;801.70;150.77;;;6.80;99.90;;;;;;5069914;28;20597;-53
2022/11/24 00:18:44;;;;;;;199.30;61.57;;;6.80;99.90;;;;;;5071854;28;20571;-52
2022/11/24 00:21:14;;;;;;;82.03;38.43;;;6.80;99.90;;;;;;5069825;28;20715;-52
2022/11/24 00:23:43;;;;;;;37.40;24.37;;;6.80;99.90;;;;;;5069711;28;20211;-52
2022/11/24 00:26:13;;;;;;;129.93;48.93;;;6.80;99.90;;;;;;5069149;28;20673;-52
2022/11/24 00:28:42;;;;;;;141.80;44.83;;;6.80;99.90;;;;;;5069567;28;20284;-52
2022/11/24 00:31:19;;;;;;;47.33;32.60;;;6.90;99.90;;;;;;5069924;28;20341;-52
2022/11/24 00:33:48;;;;;;;142.47;47.97;;;6.80;99.90;;;;;;5068980;28;20294;-52
2022/11/24 00:36:19;;;;;;;143.43;45.30;;;6.80;99.90;;;;;;5068022;28;20322;-52
2022/11/24 00:38:47;;;;;;;65.27;39.90;;;6.90;99.90;;;;;;5067619;28;20303;-52
2022/11/24 00:41:15;;;;;;;98.17;41.07;;;6.90;99.90;;;;;;5068603;28;20208;-52
2022/11/24 00:43:43;;;;;;;106.90;44.87;;;6.90;99.90;;;;;;5068977;28;20295;-52
2022/11/24 00:46:11;;;;;;;76.00;40.17;;;6.80;99.90;;;;;;5069255;28;20264;-52
2022/11/24 00:48:39;;;;;;;149.17;42.57;;;6.80;99.90;;;;;;5068625;28;20205;-53
2022/11/24 00:51:10;;;;;;;153.37;57.87;;;6.90;99.90;;;;;;5054643;28;20266;-53
2022/11/24 00:53:40;;;;;;;98.20;46.50;;;6.90;99.90;;;;;;5069273;28;20691;-52
2022/11/24 00:56:08;;;;;;;213.23;90.17;;;6.90;99.90;;;;;;5068629;28;20234;-51
2022/11/24 00:58:36;;;;;;;318.27;74.93;;;6.90;99.90;;;;;;5069349;28;20298;-51
2022/11/24 01:01:07;;;;;;;137.30;49.90;;;6.90;99.90;;;;;;5057572;28;20282;-52
2022/11/24 01:03:35;;;;;;;76.13;39.70;;;6.90;99.90;;;;;;5068667;28;20209;-54
2022/11/24 01:06:05;;;;;;;58.77;22.90;;;7.00;99.90;;;;;;5067307;28;20767;-52
2022/11/24 01:08:33;;;;;;;134.63;57.87;;;6.90;99.90;;;;;;5069091;28;20225;-53
2022/11/24 01:11:13;;;;;;;76.17;33.27;;;6.90;99.90;;;;;;5068754;28;20899;-52
2022/11/24 01:13:43;;;;;;;483.23;94.13;;;7.00;99.90;;;;;;5068728;28;20212;-51
2022/11/24 01:16:16;;;;;;;98.43;33.33;;;7.00;99.90;;;;;;5068974;28;20232;-52
2022/11/24 01:18:44;;;;;;;84.67;41.67;;;7.00;99.90;;;;;;5069384;28;20636;-52
2022/11/24 01:21:12;;;;;;;91.33;33.67;;;7.10;99.90;;;;;;5068420;28;20294;-53
2022/11/24 01:23:41;;;;;;;72.77;33.70;;;7.00;99.90;;;;;;5068335;28;20250;-51
2022/11/24 01:26:13;;;;;;;236.10;71.07;;;7.00;99.90;;;;;;5068879;28;20664;-52
2022/11/24 01:28:41;;;;;;;58.07;25.67;;;7.00;99.90;;;;;;5068679;28;20222;-53
2022/11/24 01:31:15;;;;;;;602.00;98.93;;;7.00;99.90;;;;;;5069681;28;20579;-53
2022/11/24 01:33:43;;;;;;;36.20;21.23;;;6.90;99.90;;;;;;5068403;28;20576;-53
2022/11/24 01:36:11;;;;;;;56.53;34.23;;;6.90;99.90;;;;;;5067941;28;20319;-52
2022/11/24 01:38:40;;;;;;;228.70;83.77;;;7.00;99.90;;;;;;5068805;28;20207;-52
2022/11/24 01:41:13;;;;;;;116.87;41.73;;;6.90;99.90;;;;;;5068615;28;20210;-51
2022/11/24 01:43:42;;;;;;;372.90;71.93;;;6.90;99.90;;;;;;5068462;28;20215;-52
2022/11/24 01:46:17;;;;;;;113.47;50.87;;;6.90;99.90;;;;;;5065149;28;20254;-52
2022/11/24 01:48:48;;;;;;;248.80;53.83;;;7.00;99.90;;;;;;5068899;28;20702;-52
2022/11/24 01:51:20;;;;;;;41.17;31.83;;;7.00;99.90;;;;;;5068251;28;20294;-52
2022/11/24 01:53:53;;;;;;;31.20;21.40;;;7.00;99.90;;;;;;5077069;28;20235;-52
2022/11/24 01:56:23;;;;;;;65.13;31.57;;;6.90;99.90;;;;;;5087167;28;20306;-53
2022/11/24 01:58:55;;;;;;;87.07;35.90;;;7.00;99.90;;;;;;5088982;28;20221;-53
2022/11/24 02:01:23;;;;;;;78.47;34.17;;;7.00;99.90;;;;;;5092022;28;20316;-52
2022/11/24 02:03:52;;;;;;;86.53;36.20;;;7.00;99.90;;;;;;5080161;28;20203;-52
2022/11/24 02:06:25;;;;;;;58.03;29.63;;;7.10;99.90;;;;;;5087822;28;20266;-52
2022/11/24 02:08:58;;;;;;;84.07;43.57;;;7.10;99.90;;;;;;5072281;28;20664;-51
2022/11/24 02:11:33;;;;;;;31.40;26.53;;;7.10;99.90;;;;;;5077916;28;20230;-53
2022/11/24 02:14:01;;;;;;;68.47;36.37;;;7.20;99.90;;;;;;5082797;28;20298;-52
2022/11/24 02:16:30;;;;;;;85.83;31.70;;;7.20;99.90;;;;;;5072090;28;20773;-52
2022/11/24 02:18:58;;;;;;;60.43;35.07;;;7.20;99.90;;;;;;5071900;28;20697;-54
2022/11/24 02:21:26;;;;;;;79.73;37.70;;;7.20;99.90;;;;;;5072140;28;20208;-54
2022/11/24 02:24:00;;;;;;;24.53;22.00;;;7.30;99.90;;;;;;5071684;28;20258;-52
2022/11/24 02:26:40;;;;;;;82.97;36.03;;;7.30;99.90;;;;;;5071809;28;20669;-52
2022/11/24 02:29:10;;;;;;;60.67;34.90;;;7.30;99.90;;;;;;5072293;28;20208;-51
2022/11/24 02:31:39;;;;;;;237.97;70.43;;;7.20;99.90;;;;;;5068042;28;20629;-53
2022/11/24 02:34:07;;;;;;;50.47;26.37;;;7.20;99.90;;;;;;5071594;28;20263;-52
2022/11/24 02:36:36;;;;;;;101.80;42.87;;;7.20;99.90;;;;;;5071210;28;20234;-51
2022/11/24 02:39:05;;;;;;;73.30;34.50;;;7.20;99.90;;;;;;5071827;28;20678;-52
2022/11/24 02:41:33;;;;;;;80.77;46.53;;;7.20;99.90;;;;;;5071995;28;20288;-53
2022/11/24 02:44:02;;;;;;;62.73;26.87;;;7.20;99.90;;;;;;5071440;28;20629;-52
2022/11/24 02:46:30;;;;;;;130.73;52.60;;;7.20;99.90;;;;;;5071711;28;20308;-52
2022/11/24 02:48:59;;;;;;;170.00;62.67;;;7.20;99.90;;;;;;5071777;28;20215;-52
2022/11/24 02:51:28;;;;;;;329.97;56.57;;;7.20;99.90;;;;;;5071362;28;20742;-52
2022/11/24 02:53:56;;;;;;;157.03;56.33;;;7.20;99.90;;;;;;5071335;28;20288;-52
2022/11/24 02:56:26;;;;;;;140.80;46.87;;;7.20;99.90;;;;;;5070855;28;20252;-52
2022/11/24 02:58:54;;;;;;;300.17;102.97;;;7.20;99.90;;;;;;5071395;28;20205;-53
2022/11/24 03:01:23;;;;;;;81.07;35.30;;;7.20;99.90;;;;;;5071110;28;20687;-52
2022/11/24 03:03:51;;;;;;;43.20;24.77;;;7.20;99.90;;;;;;5070996;28;20208;-51
2022/11/24 03:06:19;;;;;;;104.17;35.83;;;7.30;99.90;;;;;;5060879;28;20241;-53
2022/11/24 03:08:47;;;;;;;93.63;41.03;;;7.30;99.90;;;;;;5071252;28;20673;-52
2022/11/24 03:11:16;;;;;;;120.63;41.80;;;7.30;99.90;;;;;;5070234;28;20209;-52
2022/11/24 03:13:44;;;;;;;93.37;37.63;;;7.30;99.90;;;;;;5070483;28;20590;-52
2022/11/24 03:16:12;;;;;;;266.47;75.40;;;7.30;99.90;;;;;;5071156;28;20327;-52
2022/11/24 03:18:42;;;;;;;68.43;28.27;;;7.30;99.90;;;;;;5071039;28;20205;-52
2022/11/24 03:21:10;;;;;;;218.53;60.03;;;7.40;99.90;;;;;;5071466;28;20214;-53
2022/11/24 03:23:38;;;;;;;145.90;41.10;;;7.40;99.90;;;;;;5070579;28;20204;-53
2022/11/24 03:26:09;;;;;;;313.60;47.70;;;7.40;99.90;;;;;;5070852;28;20224;-53
2022/11/24 03:28:37;;;;;;;73.93;26.53;;;7.40;99.90;;;;;;5070772;28;20295;-52
2022/11/24 03:31:06;;;;;;;429.60;105.23;;;7.40;99.90;;;;;;5070774;28;20692;-52
2022/11/24 03:33:35;;;;;;;570.17;160.37;;;7.30;99.90;;;;;;5069710;28;21033;-52
2022/11/24 03:36:06;;;;;;;808.47;181.60;;;7.30;99.90;;;;;;5069993;28;21002;-53
2022/11/24 03:38:34;;;;;;;197.20;74.53;;;7.30;99.90;;;;;;5070918;28;20215;-52
2022/11/24 03:41:02;;;;;;;156.00;42.67;;;7.30;99.90;;;;;;5070477;28;20295;-52
2022/11/24 03:43:30;;;;;;;47.83;23.73;;;7.30;99.90;;;;;;5070371;28;20700;-52
2022/11/24 03:45:58;;;;;;;148.17;78.20;;;7.20;99.90;;;;;;5056623;28;20315;-53
2022/11/24 03:48:26;;;;;;;48.00;33.47;;;7.30;99.90;;;;;;5064857;28;20209;-51
2022/11/24 03:50:55;;;;;;;199.73;61.83;;;7.30;99.90;;;;;;5070750;28;20216;-53
2022/11/24 03:53:26;;;;;;;37.63;21.53;;;7.30;99.90;;;;;;5069978;28;20223;-52
2022/11/24 03:55:55;;;;;;;112.83;40.00;;;7.30;99.90;;;;;;5070235;28;20225;-52
2022/11/24 03:58:23;;;;;;;303.67;85.10;;;7.40;99.90;;;;;;5070207;28;20908;-52
2022/11/24 04:00:53;;;;;;;254.07;76.97;;;7.40;99.90;;;;;;5070244;28;20212;-52
2022/11/24 04:03:21;;;;;;;96.70;32.73;;;7.40;99.90;;;;;;5069577;28;20658;-52
2022/11/24 04:05:49;;;;;;;119.10;37.50;;;7.40;99.90;;;;;;5069596;28;20317;-52
2022/11/24 04:08:17;;;;;;;120.90;52.70;;;7.40;99.90;;;;;;5069804;28;20299;-52
2022/11/24 04:10:50;;;;;;;145.87;47.20;;;7.40;99.90;;;;;;5069911;28;20208;-52
2022/11/24 04:13:18;;;;;;;106.97;32.97;;;7.30;99.90;;;;;;5060442;28;20212;-51
2022/11/24 04:15:46;;;;;;;63.77;23.73;;;7.30;99.90;;;;;;5079745;28;20262;-52
2022/11/24 04:18:14;;;;;;;33.83;24.83;;;7.30;99.90;;;;;;5089929;28;20249;-52
2022/11/24 04:20:43;;;;;;;215.07;45.67;;;7.30;99.90;;;;;;5088857;28;20231;-52
2022/11/24 04:23:11;;;;;;;78.27;24.77;;;7.30;99.90;;;;;;5089664;28;20207;-52
2022/11/24 04:25:42;;;;;;;105.63;31.60;;;7.30;99.90;;;;;;5090062;28;20229;-52
2022/11/24 04:28:11;;;;;;;56.57;27.40;;;7.20;99.90;;;;;;5088574;28;20259;-52
2022/11/24 04:30:43;;;;;;;59.00;24.67;;;7.20;99.90;;;;;;5061866;28;20242;-52
2022/11/24 04:33:12;;;;;;;100.20;33.07;;;7.20;99.90;;;;;;5089207;28;20223;-52
2022/11/24 04:35:40;;;;;;;196.13;61.77;;;7.30;99.90;;;;;;5088284;28;20304;-52
2022/11/24 04:38:08;;;;;;;180.63;56.03;;;7.30;99.90;;;;;;5089459;28;20207;-52
2022/11/24 04:40:37;;;;;;;51.33;29.77;;;7.30;99.90;;;;;;5089423;28;20255;-52
2022/11/24 04:43:05;;;;;;;135.07;46.93;;;7.30;99.90;;;;;;5089058;28;20204;-52
2022/11/24 04:45:35;;;;;;;599.37;114.23;;;7.20;99.90;;;;;;5089869;28;20230;-52
2022/11/24 04:48:03;;;;;;;206.60;68.27;;;7.30;99.90;;;;;;5089606;28;20206;-52
2022/11/24 04:50:31;;;;;;;156.50;49.20;;;7.30;99.90;;;;;;5089410;28;20319;-53
2022/11/24 04:52:59;;;;;;;65.87;28.43;;;7.40;99.90;;;;;;5088917;28;20961;-52
2022/11/24 04:55:27;;;;;;;105.90;50.73;;;7.30;99.90;;;;;;5089064;28;20310;-52
2022/11/24 04:57:55;;;;;;;116.27;42.37;;;7.30;99.90;;;;;;5089744;28;20207;-52
2022/11/24 05:00:23;;;;;;;60.60;29.17;;;7.30;99.90;;;;;;5089733;28;20306;-53
2022/11/24 05:02:52;;;;;;;24.00;14.93;;;7.30;99.90;;;;;;5089061;28;20216;-52
2022/11/24 05:05:20;;;;;;;219.03;64.70;;;7.30;99.90;;;;;;5089004;28;20259;-52
2022/11/24 05:07:48;;;;;;;505.77;189.73;;;7.30;99.90;;;;;;5089078;28;20301;-52
2022/11/24 05:10:35;;;;;;;151.77;51.17;;;7.20;99.90;;;;;;5084260;28;20254;-52
2022/11/24 05:13:05;;;;;;;817.57;245.47;;;7.20;99.90;;;;;;5086948;28;20609;-52
2022/11/24 05:15:33;;;;;;;114.13;46.23;;;7.20;99.90;;;;;;5069127;28;20231;-52
2022/11/24 05:18:05;;;;;;;153.27;55.07;;;7.10;99.90;;;;;;5069115;28;20236;-52
2022/11/24 05:20:34;;;;;;;179.13;49.33;;;7.10;99.90;;;;;;5055720;28;20314;-52
2022/11/24 05:23:03;;;;;;;107.77;35.47;;;7.10;99.90;;;;;;5062382;28;20223;-53
2022/11/24 05:25:32;;;;;;;45.13;22.50;;;7.00;99.90;;;;;;5068269;28;20251;-53
2022/11/24 05:28:01;;;;;;;105.70;30.90;;;7.00;99.90;;;;;;5068293;28;20244;-53
2022/11/24 05:30:29;;;;;;;664.63;139.80;;;7.00;99.90;;;;;;5069132;28;20290;-51
2022/11/24 05:32:57;;;;;;;807.00;133.77;;;7.00;99.90;;;;;;5060082;28;20204;-52
2022/11/24 05:35:27;;;;;;;176.63;53.73;;;6.90;99.90;;;;;;5067324;28;20227;-52
2022/11/24 05:37:55;;;;;;;97.83;46.70;;;7.00;99.90;;;;;;5068960;28;20261;-53
2022/11/24 05:40:24;;;;;;;317.90;79.60;;;7.00;99.90;;;;;;5068349;28;20247;-52
2022/11/24 05:42:52;;;;;;;49.33;25.10;;;7.00;99.90;;;;;;5068336;28;20297;-52
2022/11/24 05:45:22;;;;;;;312.07;54.50;;;7.10;99.90;;;;;;5068003;28;20261;-52
2022/11/24 05:47:52;;;;;;;191.17;70.23;;;7.10;99.90;;;;;;5069046;28;20215;-52
2022/11/24 05:50:22;;;;;;;169.33;66.80;;;7.10;99.90;;;;;;5068566;28;20646;-52
2022/11/24 05:52:51;;;;;;;39.97;23.43;;;7.10;99.90;;;;;;5068689;28;20207;-52
2022/11/24 05:55:19;;;;;;;54.83;23.37;;;7.20;99.90;;;;;;5068269;28;20240;-53
2022/11/24 05:57:47;;;;;;;180.37;54.60;;;7.10;99.90;;;;;;5057014;28;20710;-53
2022/11/24 06:00:18;;;;;;;48.03;30.30;;;7.20;99.90;;;;;;5068786;28;20669;-53
2022/11/24 06:02:47;;;;;;;86.53;36.83;;;7.20;99.90;;;;;;5068161;28;20314;-52
2022/11/24 06:05:15;;;;;;;38.60;17.57;;;7.20;99.90;;;;;;5068150;28;20235;-53
2022/11/24 06:07:43;;;;;;;118.70;34.40;;;7.20;99.90;;;;;;5068162;28;20215;-51
2022/11/24 06:10:13;;;;;;;85.33;35.47;;;7.30;99.90;;;;;;5068442;28;20216;-53
2022/11/24 06:12:41;;;;;;;96.73;27.43;;;7.30;99.90;;;;;;5068438;28;20236;-53
2022/11/24 06:15:10;;;;;;;177.60;69.37;;;7.30;99.90;;;;;;5068795;28;20254;-52
2022/11/24 06:17:39;;;;;;;119.13;37.27;;;7.30;99.90;;;;;;5069450;28;20583;-51
2022/11/24 06:20:09;;;;;;;176.63;52.17;;;7.30;99.90;;;;;;5068316;28;20757;-52
2022/11/24 06:22:37;;;;;;;94.20;41.67;;;7.40;99.90;;;;;;5068390;28;20209;-51
2022/11/24 06:25:06;;;;;;;46.33;34.17;;;7.40;99.90;;;;;;5068205;28;20315;-52
2022/11/24 06:27:35;;;;;;;122.87;44.10;;;7.40;99.90;;;;;;5068515;28;20293;-52
2022/11/24 06:30:04;;;;;;;81.17;26.70;;;7.40;99.90;;;;;;5067628;28;20243;-52
2022/11/24 06:32:32;;;;;;;212.67;56.60;;;7.50;99.90;;;;;;5067875;28;20287;-53
2022/11/24 06:35:00;;;;;;;128.17;39.10;;;7.50;99.90;;;;;;5066661;28;20272;-52
2022/11/24 06:37:28;;;;;;;217.33;56.10;;;7.40;99.90;;;;;;5068467;28;20292;-51
2022/11/24 06:39:56;;;;;;;384.97;112.90;;;7.40;99.90;;;;;;5065068;28;20222;-52
2022/11/24 06:42:24;;;;;;;181.03;53.47;;;7.40;99.90;;;;;;5063811;28;20292;-52
2022/11/24 06:44:54;;;;;;;203.47;85.13;;;7.40;99.90;;;;;;5066920;28;20225;-52
2022/11/24 06:47:22;;;;;;;742.77;156.73;;;7.40;99.90;;;;;;5059364;28;20244;-53
2022/11/24 06:49:50;;;;;;;178.30;58.40;;;7.30;99.90;;;;;;5072026;28;20294;-51
2022/11/24 06:52:18;;;;;;;77.93;38.00;;;7.30;99.90;;;;;;5067766;28;20247;-52
2022/11/24 06:54:46;;;;;;;302.17;90.90;;;7.40;99.90;;;;;;5070320;28;20248;-54
2022/11/24 06:57:14;;;;;;;179.37;56.27;;;7.30;99.90;;;;;;5071481;28;20794;-53
2022/11/24 06:59:42;;;;;;;604.10;168.97;;;7.40;99.90;;;;;;5067196;28;20300;-53
2022/11/24 07:02:11;;;;;;;398.83;102.63;;;7.40;99.90;;;;;;5070964;28;20749;-53
2022/11/24 07:04:39;;;;;;;258.97;99.83;;;7.30;99.90;;;;;;5070365;28;20236;-53
2022/11/24 07:07:07;;;;;;;89.80;37.17;;;7.30;99.90;;;;;;5067433;28;20214;-52
2022/11/24 07:09:36;;;;;;;220.97;70.40;;;7.30;99.90;;;;;;5069853;28;20204;-53
2022/11/24 07:12:04;;;;;;;260.17;52.10;;;7.30;99.90;;;;;;5070281;28;20243;-53
2022/11/24 07:14:32;;;;;;;68.43;33.70;;;7.30;99.90;;;;;;5071039;28;20237;-52
2022/11/24 07:17:03;;;;;;;267.70;63.90;;;7.30;99.90;;;;;;5071369;28;20266;-52
2022/11/24 07:19:32;;;;;;;693.40;182.07;;;7.30;99.90;;;;;;5070877;28;20288;-52
2022/11/24 07:22:00;;;;;;;288.90;76.93;;;7.30;99.90;;;;;;5070852;28;20212;-52
2022/11/24 07:24:28;;;;;;;522.60;171.80;;;7.30;99.90;;;;;;5070948;28;20319;-52
2022/11/24 07:26:57;;;;;;;391.67;126.50;;;7.30;99.90;;;;;;5070414;28;20663;-52
2022/11/24 07:29:25;;;;;;;38.30;26.97;;;7.30;99.90;;;;;;5070891;28;20827;-52
2022/11/24 07:31:53;;;;;;;42.57;30.07;;;7.30;99.90;;;;;;5070329;28;20212;-52
2022/11/24 07:34:21;;;;;;;283.83;99.67;;;7.40;99.90;;;;;;5064599;28;20232;-52
2022/11/24 07:36:50;;;;;;;208.53;59.50;;;7.40;99.90;;;;;;5070122;28;20303;-52
2022/11/24 07:39:18;;;;;;;458.67;174.00;;;7.40;99.90;;;;;;5070412;28;20209;-52
2022/11/24 07:41:46;;;;;;;35.77;21.83;;;7.50;99.90;;;;;;5069975;28;20235;-53
2022/11/24 07:44:15;;;;;;;236.53;82.23;;;7.50;99.90;;;;;;5070151;28;20205;-52
2022/11/24 07:46:43;;;;;;;257.73;88.27;;;7.50;99.90;;;;;;5062167;28;20208;-52
2022/11/24 07:49:11;;;;;;;146.63;45.13;;;7.50;99.90;;;;;;5069592;28;20673;-52
2022/11/24 07:51:39;;;;;;;242.47;81.57;;;7.50;99.90;;;;;;5070684;28;20211;-52
2022/11/24 07:54:08;;;;;;;195.00;68.80;;;7.60;99.90;;;;;;5069331;28;20713;-51
2022/11/24 07:56:36;;;;;;;139.53;47.83;;;7.60;99.90;;;;;;5070256;28;20344;-52
2022/11/24 07:59:04;;;;;;;138.17;62.63;;;7.60;99.90;;;;;;5066724;28;20208;-53
2022/11/24 08:01:33;;;;;;;177.10;52.17;;;7.70;99.90;;;;;;5069709;28;20232;-52
2022/11/24 08:04:01;;;;;;;49.80;23.60;;;7.70;99.90;;;;;;5069792;28;20206;-52
2022/11/24 08:06:29;;;;;;;341.90;71.97;;;7.80;99.90;;;;;;5069194;28;20714;-52
2022/11/24 08:09:07;;;;;;;42.40;23.70;;;7.80;99.90;;;;;;5070189;28;20720;-52
2022/11/24 08:11:35;;;;;;;385.93;73.97;;;7.90;99.90;;;;;;5069784;28;20209;-53
2022/11/24 08:14:03;;;;;;;105.07;42.03;;;7.90;99.90;;;;;;5069514;28;20240;-53
2022/11/24 08:16:32;;;;;;;268.37;66.47;;;7.90;99.90;;;;;;5069628;28;20228;-52
2022/11/24 08:19:00;;;;;;;313.07;58.13;;;7.90;99.90;;;;;;5069887;28;20208;-52
2022/11/24 08:21:28;;;;;;;287.17;85.03;;;7.90;99.90;;;;;;5070078;28;20299;-52
2022/11/24 08:23:56;;;;;;;674.87;203.10;;;7.90;99.90;;;;;;5069141;28;20205;-52
2022/11/24 08:26:26;;;;;;;599.77;138.87;;;7.90;99.90;;;;;;5069414;28;20336;-52
2022/11/24 08:28:56;;;;;;;363.10;95.77;;;7.80;99.90;;;;;;5069900;28;20291;-52
2022/11/24 08:31:31;;;;;;;418.10;126.50;;;7.80;99.90;;;;;;5069749;28;20560;-53
2022/11/24 08:34:00;;;;;;;212.97;56.60;;;7.80;99.90;;;;;;5068993;28;20339;-52
2022/11/24 08:36:28;;;;;;;293.13;67.53;;;7.80;99.90;;;;;;5068907;28;20252;-52
2022/11/24 08:38:57;;;;;;;298.13;59.07;;;7.80;99.90;;;;;;5064229;28;20212;-53
2022/11/24 08:41:28;;;;;;;709.60;186.40;;;7.80;99.90;;;;;;5060049;28;20612;-52
2022/11/24 08:43:56;;;;;;;273.57;91.07;;;7.80;99.90;;;;;;5068596;28;20283;-53
2022/11/24 08:46:24;;;;;;;377.27;82.27;;;7.90;99.90;;;;;;5069077;28;20309;-52
2022/11/24 08:48:54;;;;;;;248.13;57.10;;;7.90;99.90;;;;;;5068741;28;20286;-52
2022/11/24 08:51:24;;;;;;;167.87;48.87;;;7.90;99.90;;;;;;5066238;28;20209;-53
2022/11/24 08:53:55;;;;;;;226.67;72.10;;;7.90;99.90;;;;;;5063384;28;20209;-52
2022/11/24 08:56:23;;;;;;;766.00;232.50;;;8.00;99.90;;;;;;5056222;28;20239;-52
2022/11/24 08:58:53;;;;;;;568.57;165.27;;;8.00;99.90;;;;;;5062863;28;20215;-52
2022/11/24 09:01:21;;;;;;;137.10;60.77;;;8.00;99.90;;;;;;5068987;28;20235;-52
2022/11/24 09:03:50;;;;;;;200.43;67.80;;;8.00;99.90;;;;;;5067256;28;20240;-53
2022/11/24 09:06:21;;;;;;;474.17;145.90;;;8.00;99.90;;;;;;5068617;28;20224;-52
2022/11/24 09:08:50;;;;;;;392.17;72.67;;;8.00;99.90;;;;;;5069085;28;20209;-54
2022/11/24 09:11:19;;;;;;;157.30;43.13;;;7.90;99.90;;;;;;5067744;28;20753;-52
2022/11/24 09:13:47;;;;;;;433.80;87.83;;;8.00;99.90;;;;;;5068588;28;20266;-53
2022/11/24 09:16:18;;;;;;;530.00;122.43;;;8.00;99.90;;;;;;5066755;28;20311;-52
2022/11/24 09:18:53;;;;;;;914.73;234.10;;;8.00;99.90;;;;;;5055476;28;20237;-53
2022/11/24 09:21:22;;;;;;;553.80;198.93;;;8.00;99.90;;;;;;5068306;28;20287;-53
2022/11/24 09:23:52;;;;;;;798.93;258.17;;;8.00;99.90;;;;;;5067711;28;20295;-54
2022/11/24 09:26:21;;;;;;;480.57;99.97;;;8.00;99.90;;;;;;5068264;28;20248;-52
2022/11/24 09:28:53;;;;;;;474.50;108.53;;;8.00;99.90;;;;;;5066451;28;20248;-53
2022/11/24 09:31:24;;;;;;;636.37;131.37;;;8.10;99.90;;;;;;5060913;28;20209;-52
2022/11/24 09:33:53;;;;;;;508.87;132.37;;;8.10;99.90;;;;;;5063359;28;20205;-53
2022/11/24 09:36:21;;;;;;;50.10;27.20;;;8.00;99.90;;;;;;5067888;28;20252;-52
2022/11/24 09:38:49;;;;;;;154.90;56.27;;;8.10;99.90;;;;;;5068306;28;20244;-52
2022/11/24 09:41:39;;;;;;;309.87;88.20;;;8.20;99.90;;;;;;5068410;28;20295;-53
2022/11/24 09:44:30;;;;;;;54.97;22.77;;;8.20;99.90;;;;;;5068696;28;20290;-52
2022/11/24 09:47:09;;;;;;;224.93;44.53;;;8.20;99.90;;;;;;5054942;28;20288;-53
2022/11/24 09:49:47;;;;;;;72.87;27.67;;;8.30;99.90;;;;;;5066696;28;20232;-53
2022/11/24 09:52:26;;;;;;;352.57;85.20;;;8.40;99.90;;;;;;5064664;28;20287;-53
2022/11/24 09:55:00;;;;;;;79.03;29.20;;;8.50;99.90;;;;;;5067866;28;20299;-53
2022/11/24 09:57:31;;;;;;;424.03;119.10;;;8.60;99.90;;;;;;5068672;28;20246;-53
2022/11/24 10:00:13;;;;;;;205.60;58.27;;;8.70;99.90;;;;;;5068800;28;20201;-53
2022/11/24 10:02:49;;;;;;;380.07;73.23;;;8.80;99.90;;;;;;5065940;28;20201;-53
2022/11/24 10:05:19;;;;;;;250.53;79.70;;;8.80;99.90;;;;;;5068537;28;20312;-52
2022/11/24 10:08:00;;;;;;;326.33;103.93;;;8.90;99.90;;;;;;5068270;28;20655;-51
2022/11/24 10:10:39;;;;;;;59.33;22.57;;;9.10;99.90;;;;;;5068204;28;20292;-52
2022/11/24 10:13:23;;;;;;;981.77;292.10;;;9.10;99.90;;;;;;5068051;28;20639;-52
2022/11/24 10:15:59;;;;;;;953.47;217.97;;;9.20;99.90;;;;;;5067737;28;20259;-53
2022/11/24 10:18:47;;;;;;;359.70;130.57;;;9.30;99.90;;;;;;5064364;28;20296;-52
2022/11/24 10:21:37;;;;;;;360.27;86.30;;;9.50;99.90;;;;;;5069977;28;20201;-53
2022/11/24 10:24:24;;;;;;;951.10;228.17;;;9.50;99.90;;;;;;5070747;28;20311;-52
2022/11/24 10:27:00;;;;;;;591.80;99.63;;;9.60;99.90;;;;;;5071423;28;20292;-52
2022/11/24 10:29:32;;;;;;;888.47;163.03;;;9.80;99.90;;;;;;5062495;28;20292;-52
2022/11/24 10:32:07;;;;;;;1999.90;378.63;;;9.80;99.90;;;;;;5071554;28;20209;-53
2022/11/24 10:34:41;;;;;;;851.43;240.37;;;9.90;99.90;;;;;;5071518;28;20298;-53
2022/11/24 10:37:15;;;;;;;576.03;152.27;;;9.90;99.90;;;;;;5071666;28;20265;-52
2022/11/24 10:39:52;;;;;;;502.17;132.17;;;9.80;99.90;;;;;;5071921;28;20250;-53
2022/11/24 10:42:28;;;;;;;27.20;13.73;;;9.80;99.90;;;;;;5071570;28;20224;-53
2022/11/24 10:45:01;;;;;;;1042.07;248.07;;;9.80;99.90;;;;;;5071597;28;20262;-53
2022/11/24 10:47:30;;;;;;;986.07;208.63;;;9.90;99.90;;;;;;5071438;28;20642;-52
2022/11/24 10:50:02;;;;;;;844.63;210.10;;;10.00;99.90;;;;;;5071326;28;20292;-53
2022/11/24 10:52:36;;;;;;;851.23;264.77;;;10.20;99.90;;;;;;5067776;28;20296;-53
2022/11/24 10:55:06;;;;;;;356.97;67.73;;;10.30;99.90;;;;;;5062196;28;20229;-53
2022/11/24 10:57:36;;;;;;;343.40;87.93;;;10.40;99.90;;;;;;5065634;28;20319;-53
2022/11/24 11:00:27;;;;;;;990.60;169.87;;;10.40;99.90;;;;;;5068844;28;20296;-53
2022/11/24 11:03:15;;;;;;;883.33;170.10;;;10.50;99.90;;;;;;5071269;28;20313;-52
2022/11/24 11:05:48;;;;;;;750.00;164.57;;;10.50;99.90;;;;;;5062440;28;20249;-52
2022/11/24 11:08:22;;;;;;;555.30;140.80;;;10.50;99.90;;;;;;5071506;28;20763;-52
2022/11/24 11:11:07;;;;;;;1367.40;284.90;;;10.50;99.90;;;;;;5072643;28;20247;-52
2022/11/24 11:13:35;;;;;;;1396.77;376.23;;;10.70;99.90;;;;;;5071211;28;20485;-53
2022/11/24 11:16:22;;;;;;;1981.83;539.53;;;10.80;99.90;;;;;;5070924;28;20231;-53
2022/11/24 11:18:50;;;;;;;1107.83;230.57;;;10.50;99.90;;;;;;5057488;28;20705;-52
2022/11/24 11:21:30;;;;;;;908.73;230.47;;;10.40;99.90;;;;;;5071272;28;20296;-52
2022/11/24 11:23:59;;;;;;;691.00;124.20;;;10.40;99.90;;;;;;5058129;28;20208;-52
2022/11/24 11:26:34;;;;;;;1499.40;366.43;;;10.30;99.90;;;;;;5062704;28;20733;-52
2022/11/24 11:29:13;;;;;;;839.27;203.33;;;10.20;99.90;;;;;;5057854;28;20283;-52
2022/11/24 11:32:03;;;;;;;840.13;195.20;;;10.20;99.90;;;;;;5056931;28;20678;-52
2022/11/24 11:34:53;;;;;;;925.33;195.23;;;10.20;99.90;;;;;;5069221;28;20241;-52
2022/11/24 11:37:25;;;;;;;1518.47;275.03;;;10.30;99.90;;;;;;5070186;28;20315;-52
2022/11/24 11:39:55;;;;;;;1999.90;502.60;;;10.30;99.90;;;;;;5067059;28;20592;-52
2022/11/24 11:42:30;;;;;;;163.50;64.67;;;10.30;99.90;;;;;;5070193;28;20283;-52
2022/11/24 11:45:22;;;;;;;170.60;49.20;;;10.30;99.90;;;;;;5070413;28;20236;-52
2022/11/24 11:47:55;;;;;;;141.30;50.20;;;10.10;99.90;;;;;;5070804;28;20201;-52
2022/11/24 11:50:28;;;;;;;448.03;67.33;;;10.00;99.90;;;;;;5070539;28;20295;-52
2022/11/24 11:53:10;;;;;;;866.13;186.40;;;10.00;99.90;;;;;;5070345;28;20620;-52
2022/11/24 11:55:46;;;;;;;629.97;185.07;;;9.90;99.90;;;;;;5070200;28;20344;-52
2022/11/24 11:58:38;;;;;;;281.03;111.17;;;9.90;99.90;;;;;;5070243;28;20217;-52
2022/11/24 12:01:14;;;;;;;1649.17;336.37;;;9.90;99.90;;;;;;5069658;28;20236;-52
2022/11/24 12:03:56;;;;;;;462.97;129.37;;;10.00;99.90;;;;;;5064095;28;20198;-52
2022/11/24 12:06:39;;;;;;;1915.30;331.83;;;10.00;99.90;;;;;;5056506;28;20305;-52
2022/11/24 12:09:24;;;;;;;1458.30;317.03;;;10.10;99.90;;;;;;5069748;28;20283;-52
2022/11/24 12:12:11;;;;;;;1056.17;250.20;;;10.00;99.90;;;;;;5069310;28;20264;-52
2022/11/24 12:14:50;;;;;;;561.53;158.63;;;9.90;99.90;;;;;;5056317;28;20335;-52
2022/11/24 12:17:29;;;;;;;1599.57;246.50;;;9.90;99.90;;;;;;5059631;28;20321;-52
2022/11/24 12:20:17;;;;;;;1537.47;293.97;;;9.80;99.90;;;;;;5070177;28;20210;-52
2022/11/24 12:22:53;;;;;;;1080.63;198.07;;;9.80;99.90;;;;;;5069346;28;20251;-52
2022/11/24 12:25:28;;;;;;;596.17;92.73;;;9.80;99.90;;;;;;5058239;28;20217;-52
2022/11/24 12:28:12;;;;;;;482.30;145.10;;;9.80;99.90;;;;;;5059160;28;20232;-52
2022/11/24 12:30:45;;;;;;;1979.03;440.53;;;9.80;99.90;;;;;;5053742;28;20211;-52
2022/11/24 12:33:50;;;;;;;1330.43;215.47;;;9.80;99.90;;;;;;5060441;28;20229;-53
2022/11/24 12:36:40;;;;;;;501.90;172.37;;;9.80;99.90;;;;;;5058966;28;20276;-53
2022/11/24 12:39:23;;;;;;;624.00;156.60;;;9.90;99.90;;;;;;5069541;28;20197;-53
2022/11/24 12:42:03;;;;;;;294.20;82.17;;;9.90;99.90;;;;;;5068966;28;20291;-52
2022/11/24 12:44:56;;;;;;;484.90;133.03;;;9.90;99.90;;;;;;5069335;28;20197;-53
2022/11/24 12:47:34;;;;;;;30.57;16.53;;;10.00;99.90;;;;;;5067479;28;20228;-52